createdAt,value
2017-09-07T00:02:12.538Z,49.15
2017-09-07T00:04:40.114Z,49.49
2017-09-07T00:07:07.967Z,49.40
2017-09-07T00:09:35.516Z,49.36
2017-09-07T00:12:03.158Z,49.59
2017-09-07T00:14:30.753Z,49.24
2017-09-07T00:16:58.308Z,49.21
2017-09-07T00:19:25.881Z,49.17
2017-09-07T00:21:54.258Z,49.46
2017-09-07T00:24:21.799Z,49.75
2017-09-07T00:26:49.567Z,49.43
2017-09-07T00:29:17.320Z,49.40
2017-09-07T00:31:44.891Z,49.88
2017-09-07T00:34:12.414Z,49.97
2017-09-07T00:36:40.021Z,50.76
2017-09-07T00:39:08.441Z,51.09
2017-09-07T00:41:36.127Z,50.42
2017-09-07T00:44:04.471Z,50.31
2017-09-07T00:46:32.953Z,50.48
2017-09-07T00:49:00.625Z,50.53
2017-09-07T00:51:29.162Z,50.61
2017-09-07T00:53:56.824Z,51.05
2017-09-07T00:56:24.351Z,51.06
2017-09-07T00:58:51.979Z,51.36
2017-09-07T01:01:19.573Z,51.52
2017-09-07T01:03:47.127Z,51.47
2017-09-07T01:06:14.637Z,51.66
2017-09-07T01:08:42.250Z,51.09
2017-09-07T01:11:09.800Z,51.04
2017-09-07T01:13:37.329Z,51.58
2017-09-07T01:16:04.918Z,52.29
2017-09-07T01:18:32.485Z,52.43
2017-09-07T01:21:00.775Z,52.04
2017-09-07T01:23:29.201Z,51.58
2017-09-07T01:25:56.748Z,52.05
2017-09-07T01:28:24.507Z,51.68
2017-09-07T01:30:52.420Z,51.95
2017-09-07T01:33:19.990Z,51.86
2017-09-07T01:35:47.800Z,51.76
2017-09-07T01:38:15.371Z,52.09
2017-09-07T01:40:43.405Z,52.18
2017-09-07T01:43:10.979Z,52.47
2017-09-07T01:45:39.357Z,52.63
2017-09-07T01:51:49.011Z,52.97
2017-09-07T01:54:16.567Z,53.65
2017-09-07T01:56:45.212Z,53.53
2017-09-07T01:59:12.818Z,53.47
2017-09-07T02:01:40.396Z,53.20
2017-09-07T02:04:07.913Z,53.45
2017-09-07T02:06:35.508Z,53.71
2017-09-07T02:09:03.153Z,53.72
2017-09-07T02:11:30.675Z,53.81
2017-09-07T02:13:58.421Z,54.27
2017-09-07T02:16:26.200Z,54.67
2017-09-07T02:18:54.172Z,54.03
2017-09-07T02:21:21.736Z,54.27
2017-09-07T02:23:49.340Z,54.72
2017-09-07T02:26:16.897Z,55.43
2017-09-07T02:28:44.459Z,54.82
2017-09-07T02:31:12.030Z,54.64
2017-09-07T02:33:39.587Z,55.28
2017-09-07T02:36:07.218Z,55.18
2017-09-07T02:38:34.792Z,55.66
2017-09-07T02:41:02.350Z,55.20
2017-09-07T02:43:29.870Z,55.34
2017-09-07T02:45:57.441Z,55.15
2017-09-07T02:48:24.982Z,55.47
2017-09-07T02:50:52.745Z,55.26
2017-09-07T02:53:20.320Z,55.12
2017-09-07T02:55:48.132Z,55.22
2017-09-07T02:58:15.868Z,55.32
2017-09-07T03:00:44.331Z,55.37
2017-09-07T03:03:11.894Z,55.16
2017-09-07T03:05:39.423Z,55.27
2017-09-07T03:08:06.970Z,55.45
2017-09-07T03:10:34.486Z,55.38
2017-09-07T03:13:02.046Z,55.41
2017-09-07T03:15:29.626Z,55.26
2017-09-07T03:17:57.148Z,55.19
2017-09-07T03:20:24.658Z,55.05
2017-09-07T03:22:52.231Z,54.88
2017-09-07T03:25:19.778Z,55.21
2017-09-07T03:27:47.544Z,55.57
2017-09-07T03:30:15.247Z,55.56
2017-09-07T03:32:42.780Z,55.76
2017-09-07T03:35:10.293Z,55.17
2017-09-07T03:37:37.856Z,55.01
2017-09-07T03:40:05.428Z,55.18
2017-09-07T03:42:33.206Z,55.13
2017-09-07T03:45:00.795Z,55.06
2017-09-07T03:47:28.332Z,54.75
2017-09-07T03:49:55.855Z,54.95
2017-09-07T03:52:23.494Z,54.79
2017-09-07T03:54:51.020Z,55.41
2017-09-07T03:57:18.769Z,55.40
2017-09-07T03:59:46.333Z,56.27
2017-09-07T04:02:13.947Z,56.25
2017-09-07T04:04:41.458Z,55.92
2017-09-07T04:07:08.981Z,56.31
2017-09-07T04:09:36.517Z,56.08
2017-09-07T04:12:04.258Z,55.87
2017-09-07T04:14:31.809Z,55.73
2017-09-07T04:16:59.362Z,55.83
2017-09-07T04:19:26.873Z,55.94
2017-09-07T04:21:54.472Z,55.52
2017-09-07T04:24:22.061Z,55.89
2017-09-07T04:26:49.589Z,55.51
2017-09-07T04:29:17.110Z,54.83
2017-09-07T04:31:44.897Z,56.85
2017-09-07T04:34:12.393Z,52.12
2017-09-07T04:36:39.888Z,47.28
2017-09-07T04:39:07.437Z,44.95
2017-09-07T04:41:34.950Z,43.67
2017-09-07T04:44:02.496Z,42.33
2017-09-07T04:46:30.065Z,40.82
2017-09-07T04:48:57.569Z,40.07
2017-09-07T04:51:25.111Z,39.54
2017-09-07T04:53:52.669Z,40.14
2017-09-07T04:56:20.195Z,40.16
2017-09-07T04:58:47.704Z,40.30
2017-09-07T05:01:15.600Z,39.44
2017-09-07T05:03:43.129Z,39.42
2017-09-07T05:06:10.660Z,39.01
2017-09-07T05:08:38.272Z,38.38
2017-09-07T05:11:05.791Z,38.32
2017-09-07T05:13:33.322Z,38.18
2017-09-07T05:16:00.925Z,37.64
2017-09-07T05:18:28.446Z,37.43
2017-09-07T05:20:55.971Z,37.22
2017-09-07T05:23:23.562Z,36.80
2017-09-07T05:25:51.080Z,37.27
2017-09-07T05:28:18.832Z,36.15
2017-09-07T05:30:46.405Z,36.11
2017-09-07T05:33:13.936Z,35.36
2017-09-07T05:35:41.449Z,35.37
2017-09-07T05:38:08.981Z,35.20
2017-09-07T05:40:36.537Z,34.76
2017-09-07T05:43:04.085Z,33.94
2017-09-07T05:45:31.667Z,34.24
2017-09-07T05:47:59.203Z,34.27
2017-09-07T05:50:26.731Z,33.78
2017-09-07T05:52:54.308Z,33.49
2017-09-07T05:55:22.129Z,33.03
2017-09-07T05:57:49.644Z,32.89
2017-09-07T06:00:17.349Z,32.49
2017-09-07T06:02:44.864Z,31.71
2017-09-07T06:05:12.423Z,32.19
2017-09-07T06:07:39.996Z,31.79
2017-09-07T06:10:07.523Z,30.82
2017-09-07T06:12:35.044Z,30.42
2017-09-07T06:15:02.631Z,31.29
2017-09-07T06:17:30.469Z,31.00
2017-09-07T06:19:58.036Z,31.80
2017-09-07T06:22:25.573Z,31.31
2017-09-07T06:24:53.109Z,30.85
2017-09-07T06:27:20.643Z,30.25
2017-09-07T06:29:48.181Z,29.05
2017-09-07T06:32:15.783Z,31.05
2017-09-07T06:34:43.321Z,30.40
2017-09-07T06:37:10.862Z,28.84
2017-09-07T06:39:38.429Z,29.91
2017-09-07T06:42:05.978Z,28.54
2017-09-07T06:44:33.492Z,28.99
2017-09-07T06:47:01.286Z,28.99
2017-09-07T06:49:28.785Z,28.14
2017-09-07T06:51:56.307Z,28.12
2017-09-07T06:54:23.866Z,26.84
2017-09-07T06:56:51.417Z,27.02
2017-09-07T06:59:18.930Z,26.82
2017-09-07T07:01:46.533Z,26.86
2017-09-07T07:04:14.089Z,26.85
2017-09-07T07:06:41.619Z,26.30
2017-09-07T07:09:09.814Z,24.44
2017-09-07T07:11:37.681Z,25.59
2017-09-07T07:14:05.227Z,26.24
2017-09-07T07:16:32.794Z,24.81
2017-09-07T07:19:00.307Z,24.54
2017-09-07T07:21:27.832Z,25.37
2017-09-07T07:23:55.441Z,24.91
2017-09-07T07:26:23.179Z,25.03
2017-09-07T07:28:50.732Z,24.98
2017-09-07T07:31:18.276Z,24.13
2017-09-07T07:33:46.620Z,25.56
2017-09-07T07:36:14.442Z,24.56
2017-09-07T07:38:42.066Z,23.73
2017-09-07T07:41:09.612Z,24.73
2017-09-07T07:43:37.130Z,24.80
2017-09-07T07:46:04.691Z,24.82
2017-09-07T07:48:32.212Z,24.41
2017-09-07T07:50:59.766Z,23.98
2017-09-07T07:53:27.345Z,24.08
2017-09-07T07:55:54.898Z,23.81
2017-09-07T07:58:22.405Z,23.25
2017-09-07T08:00:49.961Z,22.42
2017-09-07T08:03:17.817Z,22.84
2017-09-07T08:05:45.325Z,23.17
2017-09-07T08:08:12.860Z,23.35
2017-09-07T08:10:40.404Z,23.12
2017-09-07T08:13:07.933Z,22.49
2017-09-07T08:15:35.477Z,22.62
2017-09-07T08:18:03.373Z,22.71
2017-09-07T08:20:30.925Z,22.93
2017-09-07T08:22:58.494Z,22.79
2017-09-07T08:25:26.006Z,22.70
2017-09-07T08:27:53.544Z,22.30
2017-09-07T08:30:21.131Z,22.17
2017-09-07T08:32:48.644Z,22.31
2017-09-07T08:35:16.171Z,22.40
2017-09-07T08:37:44.010Z,21.72
2017-09-07T08:40:11.532Z,21.75
2017-09-07T08:42:39.043Z,21.92
2017-09-07T08:45:06.627Z,21.68
2017-09-07T08:47:34.194Z,22.62
2017-09-07T08:50:01.730Z,23.01
2017-09-07T08:52:29.302Z,23.34
2017-09-07T08:54:57.135Z,23.80
2017-09-07T08:57:24.671Z,23.52
2017-09-07T08:59:52.227Z,23.08
2017-09-07T09:02:19.812Z,23.09
2017-09-07T09:04:47.475Z,22.82
2017-09-07T09:07:14.992Z,22.65
2017-09-07T09:09:42.553Z,22.91
2017-09-07T09:12:10.100Z,23.04
2017-09-07T09:14:37.671Z,22.13
2017-09-07T09:17:05.221Z,21.42
2017-09-07T09:19:32.818Z,21.48
2017-09-07T09:22:00.356Z,21.36
2017-09-07T09:24:28.179Z,20.77
2017-09-07T09:26:55.702Z,21.31
2017-09-07T09:29:23.264Z,21.42
2017-09-07T09:31:50.849Z,21.83
2017-09-07T09:34:18.424Z,21.21
2017-09-07T09:36:45.925Z,21.28
2017-09-07T09:39:13.586Z,21.02
2017-09-07T09:41:41.182Z,20.65
2017-09-07T09:44:08.700Z,20.86
2017-09-07T09:46:36.302Z,20.82
2017-09-07T09:49:04.223Z,21.30
2017-09-07T09:51:31.763Z,20.64
2017-09-07T09:53:59.353Z,20.99
2017-09-07T09:56:27.109Z,20.85
2017-09-07T09:58:55.041Z,20.51
2017-09-07T10:01:22.660Z,20.75
2017-09-07T10:03:50.222Z,20.15
2017-09-07T10:06:17.759Z,20.29
2017-09-07T10:08:45.310Z,20.12
2017-09-07T10:11:12.824Z,19.74
2017-09-07T10:13:40.325Z,20.04
2017-09-07T10:16:07.891Z,20.45
2017-09-07T10:18:35.463Z,20.67
2017-09-07T10:21:02.997Z,20.59
2017-09-07T10:23:30.567Z,19.97
2017-09-07T10:25:58.166Z,20.28
2017-09-07T10:28:25.939Z,20.03
2017-09-07T10:30:53.513Z,20.68
2017-09-07T10:33:21.026Z,21.15
2017-09-07T10:35:48.579Z,21.63
2017-09-07T10:38:16.173Z,21.16
2017-09-07T10:40:43.678Z,21.46
2017-09-07T10:43:11.216Z,21.58
2017-09-07T10:45:38.786Z,22.02
2017-09-07T10:48:06.303Z,21.77
2017-09-07T10:50:34.038Z,21.62
2017-09-07T10:53:01.650Z,21.58
2017-09-07T10:55:29.242Z,21.65
2017-09-07T10:57:56.762Z,21.65
2017-09-07T11:00:24.319Z,21.27
2017-09-07T11:02:51.826Z,21.29
2017-09-07T11:05:19.347Z,21.14
2017-09-07T11:07:46.940Z,20.97
2017-09-07T11:10:14.500Z,21.38
2017-09-07T11:12:42.116Z,21.92
2017-09-07T11:15:09.670Z,22.33
2017-09-07T11:17:37.178Z,21.95
2017-09-07T11:20:04.738Z,22.99
2017-09-07T11:22:32.294Z,23.80
2017-09-07T11:24:59.818Z,24.16
2017-09-07T11:27:27.615Z,24.28
2017-09-07T11:29:55.170Z,24.22
2017-09-07T11:32:22.754Z,24.15
2017-09-07T11:34:50.500Z,24.14
2017-09-07T11:37:18.035Z,23.19
2017-09-07T11:39:45.582Z,23.09
2017-09-07T11:42:13.125Z,23.15
2017-09-07T11:44:40.665Z,22.59
2017-09-07T11:47:08.237Z,22.36
2017-09-07T11:49:35.796Z,22.28
2017-09-07T11:52:03.686Z,22.39
2017-09-07T11:54:31.269Z,22.36
2017-09-07T11:56:58.823Z,22.34
2017-09-07T11:59:26.338Z,21.92
2017-09-07T12:01:53.947Z,22.30
2017-09-07T12:04:21.746Z,22.42
2017-09-07T12:06:49.918Z,21.88
2017-09-07T12:09:17.760Z,21.61
2017-09-07T12:11:45.319Z,22.39
2017-09-07T12:14:12.824Z,22.90
2017-09-07T12:16:40.377Z,22.50
2017-09-07T12:19:07.930Z,22.44
2017-09-07T12:21:35.676Z,23.00
2017-09-07T12:24:03.322Z,22.79
2017-09-07T12:26:30.852Z,22.53
2017-09-07T12:28:58.359Z,22.61
2017-09-07T12:31:25.922Z,22.42
2017-09-07T12:33:53.440Z,22.42
2017-09-07T12:36:21.007Z,22.33
2017-09-07T12:38:48.662Z,22.22
2017-09-07T12:41:16.194Z,22.63
2017-09-07T12:43:43.722Z,22.04
2017-09-07T12:46:11.306Z,22.11
2017-09-07T12:48:38.813Z,22.72
2017-09-07T12:51:06.318Z,22.66
2017-09-07T12:53:33.871Z,22.87
2017-09-07T12:56:01.375Z,22.34
2017-09-07T12:58:28.881Z,22.53
2017-09-07T13:00:56.420Z,22.71
2017-09-07T13:03:23.926Z,22.58
2017-09-07T13:05:51.731Z,22.82
2017-09-07T13:08:19.603Z,22.93
2017-09-07T13:10:47.154Z,22.87
2017-09-07T13:13:14.910Z,22.84
2017-09-07T13:15:42.502Z,22.33
2017-09-07T13:18:10.307Z,22.65
2017-09-07T13:20:38.758Z,22.42
2017-09-07T13:23:06.318Z,22.55
2017-09-07T13:25:33.816Z,22.58
2017-09-07T13:28:01.396Z,22.68
2017-09-07T13:30:28.966Z,22.42
2017-09-07T13:32:56.474Z,23.01
2017-09-07T13:35:24.036Z,22.50
2017-09-07T13:37:51.683Z,22.50
2017-09-07T13:40:19.925Z,22.00
2017-09-07T13:42:47.515Z,22.09
2017-09-07T13:45:15.573Z,22.04
2017-09-07T13:47:43.076Z,22.13
2017-09-07T13:50:10.870Z,21.72
2017-09-07T13:52:38.421Z,22.17
2017-09-07T13:55:06.022Z,22.25
2017-09-07T13:57:33.816Z,22.15
2017-09-07T14:00:01.362Z,22.09
2017-09-07T14:02:28.914Z,21.98
2017-09-07T14:04:56.458Z,22.29
2017-09-07T14:07:23.973Z,22.15
2017-09-07T14:09:51.515Z,21.64
2017-09-07T14:12:19.021Z,21.73
2017-09-07T14:14:46.610Z,21.61
2017-09-07T14:17:14.178Z,21.65
2017-09-07T14:19:41.705Z,22.33
2017-09-07T14:22:09.294Z,22.77
2017-09-07T14:24:37.084Z,22.83
2017-09-07T14:27:04.609Z,22.80
2017-09-07T14:29:32.110Z,22.94
2017-09-07T14:31:59.682Z,22.87
2017-09-07T14:34:27.206Z,22.92
2017-09-07T14:36:55.033Z,23.00
2017-09-07T14:39:22.578Z,22.81
2017-09-07T14:41:50.153Z,23.30
2017-09-07T14:44:17.668Z,23.45
2017-09-07T14:46:45.438Z,23.28
2017-09-07T14:49:13.181Z,23.11
2017-09-07T14:51:41.005Z,23.37
2017-09-07T14:54:08.594Z,23.26
2017-09-07T14:56:36.097Z,23.43
2017-09-07T14:59:03.631Z,23.51
2017-09-07T15:01:31.214Z,23.23
2017-09-07T15:03:58.762Z,23.44
2017-09-07T15:06:26.328Z,23.59
2017-09-07T15:08:53.864Z,23.68
2017-09-07T15:11:21.366Z,23.87
2017-09-07T15:13:48.862Z,23.95
2017-09-07T15:16:16.631Z,23.25
2017-09-07T15:18:44.363Z,23.17
2017-09-07T15:21:12.239Z,23.39
2017-09-07T15:23:39.837Z,23.78
2017-09-07T15:26:07.356Z,24.39
2017-09-07T15:28:35.132Z,24.46
2017-09-07T15:31:02.748Z,24.39
2017-09-07T15:33:30.277Z,24.69
2017-09-07T15:35:57.818Z,24.75
2017-09-07T15:38:25.372Z,24.79
2017-09-07T15:40:53.251Z,24.81
2017-09-07T15:43:20.830Z,24.73
2017-09-07T15:45:48.421Z,26.62
2017-09-07T15:48:15.970Z,27.38
2017-09-07T15:50:43.519Z,25.83
2017-09-07T15:53:11.110Z,25.82
2017-09-07T15:55:38.649Z,26.00
2017-09-07T15:58:06.284Z,26.19
2017-09-07T16:00:33.920Z,26.66
2017-09-07T16:03:01.457Z,27.15
2017-09-07T16:05:29.182Z,27.10
2017-09-07T16:07:56.963Z,27.32
2017-09-07T16:10:24.518Z,27.62
2017-09-07T16:12:52.019Z,27.77
2017-09-07T16:15:19.573Z,27.78
2017-09-07T16:17:47.081Z,27.88
2017-09-07T16:20:14.586Z,28.08
2017-09-07T16:22:42.522Z,28.16
2017-09-07T16:25:10.298Z,28.06
2017-09-07T16:27:37.798Z,28.13
2017-09-07T16:30:06.546Z,27.73
2017-09-07T16:32:34.064Z,27.96
2017-09-07T16:35:01.581Z,28.29
2017-09-07T16:37:29.167Z,28.30
2017-09-07T16:39:56.718Z,28.83
2017-09-07T16:42:24.233Z,29.12
2017-09-07T16:44:51.791Z,29.14
2017-09-07T16:47:19.290Z,29.00
2017-09-07T16:49:47.097Z,29.11
2017-09-07T16:52:14.684Z,29.49
2017-09-07T16:54:42.275Z,29.35
2017-09-07T16:57:09.817Z,30.17
2017-09-07T16:59:37.422Z,29.77
2017-09-07T17:02:04.955Z,30.16
2017-09-07T17:04:32.519Z,30.35
2017-09-07T17:07:00.116Z,31.01
2017-09-07T17:09:27.728Z,31.52
2017-09-07T17:11:55.247Z,31.83
2017-09-07T17:14:22.769Z,31.84
2017-09-07T17:16:50.349Z,31.97
2017-09-07T17:19:17.859Z,31.80
2017-09-07T17:21:45.439Z,31.71
2017-09-07T17:24:13.054Z,32.18
2017-09-07T17:26:40.579Z,32.55
2017-09-07T17:29:08.154Z,32.67
2017-09-07T17:31:35.709Z,32.47
2017-09-07T17:34:03.295Z,31.99
2017-09-07T17:36:38.467Z,32.30
2017-09-07T17:39:06.009Z,32.05
2017-09-07T17:41:33.545Z,32.15
2017-09-07T17:44:01.121Z,33.40
2017-09-07T17:46:28.703Z,32.71
2017-09-07T17:48:56.258Z,32.33
2017-09-07T17:51:23.809Z,31.98
2017-09-07T17:53:51.571Z,31.37
2017-09-07T17:56:19.099Z,31.78
2017-09-07T17:58:46.692Z,33.23
2017-09-07T18:01:14.435Z,33.66
2017-09-07T18:03:41.983Z,33.65
2017-09-07T18:06:09.521Z,33.12
2017-09-07T18:08:37.831Z,32.55
2017-09-07T18:11:05.578Z,32.30
2017-09-07T18:13:34.122Z,33.08
2017-09-07T18:16:01.717Z,33.17
2017-09-07T18:18:29.310Z,33.71
2017-09-07T18:20:56.986Z,32.82
2017-09-07T18:23:24.655Z,33.97
2017-09-07T18:25:52.471Z,34.03
2017-09-07T18:28:20.191Z,33.48
2017-09-07T18:30:47.807Z,33.07
2017-09-07T18:33:15.383Z,33.91
2017-09-07T18:35:43.143Z,32.99
2017-09-07T18:38:10.747Z,33.46
2017-09-07T18:40:38.370Z,33.85
2017-09-07T18:43:05.916Z,33.92
2017-09-07T18:45:34.315Z,33.71
2017-09-07T18:48:02.129Z,33.86
2017-09-07T18:50:29.867Z,32.95
2017-09-07T18:52:57.442Z,34.68
2017-09-07T18:55:25.219Z,35.72
2017-09-07T18:57:52.814Z,36.75
2017-09-07T19:00:20.516Z,37.36
2017-09-07T19:02:48.090Z,38.07
2017-09-07T19:05:15.670Z,38.05
2017-09-07T19:07:43.315Z,37.96
2017-09-07T19:10:10.849Z,38.39
2017-09-07T19:12:38.417Z,38.51
2017-09-07T19:15:06.014Z,38.49
2017-09-07T19:17:33.574Z,37.82
2017-09-07T19:20:01.173Z,37.02
2017-09-07T19:22:28.805Z,37.98
2017-09-07T19:24:56.397Z,38.59
2017-09-07T19:27:24.142Z,38.92
2017-09-07T19:29:51.746Z,38.54
2017-09-07T19:32:19.322Z,39.52
2017-09-07T19:34:46.861Z,42.42
2017-09-07T19:37:14.616Z,40.11
2017-09-07T19:39:42.182Z,40.95
2017-09-07T19:42:15.779Z,40.94
2017-09-07T19:44:43.603Z,41.23
2017-09-07T19:47:11.197Z,41.58
2017-09-07T19:49:38.736Z,41.75
2017-09-07T19:52:06.335Z,42.01
2017-09-07T19:54:33.880Z,41.97
2017-09-07T19:57:01.546Z,41.93
2017-09-07T19:59:29.437Z,41.86
2017-09-07T20:01:58.066Z,41.54
2017-09-07T20:04:25.657Z,41.75
2017-09-07T20:06:54.163Z,42.09
2017-09-07T20:09:21.798Z,42.10
2017-09-07T20:11:49.345Z,42.04
2017-09-07T20:14:16.982Z,41.70
2017-09-07T20:16:44.643Z,41.84
2017-09-07T20:19:12.270Z,41.37
2017-09-07T20:21:39.875Z,41.97
2017-09-07T20:24:07.525Z,41.71
2017-09-07T20:26:35.114Z,41.55
2017-09-07T20:29:03.604Z,41.60
2017-09-07T20:31:31.760Z,41.84
2017-09-07T20:33:59.373Z,42.13
2017-09-07T20:36:26.935Z,42.46
2017-09-07T20:38:54.571Z,43.08
2017-09-07T20:41:22.623Z,43.07
2017-09-07T20:43:50.235Z,41.04
2017-09-07T20:46:17.847Z,39.78
2017-09-07T20:48:45.442Z,39.63
2017-09-07T20:51:13.003Z,38.49
2017-09-07T20:53:40.598Z,38.55
2017-09-07T20:56:08.166Z,38.87
2017-09-07T20:58:35.818Z,37.63
2017-09-07T21:01:03.477Z,36.85
2017-09-07T21:03:31.097Z,37.07
2017-09-07T21:05:58.664Z,37.78
2017-09-07T21:08:26.946Z,37.83
2017-09-07T21:10:54.595Z,37.32
2017-09-07T21:13:22.243Z,37.43
2017-09-07T21:15:49.815Z,38.01
2017-09-07T21:18:17.515Z,40.17
2017-09-07T21:20:45.188Z,40.92
2017-09-07T21:23:12.861Z,41.00
2017-09-07T21:25:40.479Z,40.64
2017-09-07T21:28:08.083Z,41.47
2017-09-07T21:30:35.742Z,42.01
2017-09-07T21:33:03.349Z,42.49
2017-09-07T21:35:30.933Z,42.81
2017-09-07T21:37:59.562Z,43.23
2017-09-07T21:40:28.193Z,43.26
2017-09-07T21:42:56.046Z,43.70
2017-09-07T21:45:23.742Z,43.73
2017-09-07T21:47:51.347Z,43.98
2017-09-07T21:50:20.509Z,44.49
2017-09-07T21:52:48.595Z,44.70
2017-09-07T21:55:16.150Z,44.99
2017-09-07T21:57:44.074Z,44.95
2017-09-07T22:00:11.758Z,44.98
2017-09-07T22:02:39.333Z,45.68
2017-09-07T22:05:07.171Z,46.11
2017-09-07T22:07:34.741Z,45.85
2017-09-07T22:10:02.668Z,46.21
2017-09-07T22:12:30.297Z,45.99
2017-09-07T22:14:57.889Z,46.28
2017-09-07T22:17:25.787Z,46.68
2017-09-07T22:19:53.970Z,46.71
2017-09-07T22:22:21.559Z,47.25
2017-09-07T22:24:49.103Z,47.15
2017-09-07T22:27:16.679Z,47.15
2017-09-07T22:29:44.282Z,47.56
2017-09-07T22:32:11.887Z,47.87
2017-09-07T22:34:39.485Z,47.53
2017-09-07T22:37:07.104Z,47.68
2017-09-07T22:39:35.487Z,47.76
2017-09-07T22:42:03.247Z,47.72
2017-09-07T22:44:31.025Z,47.61
2017-09-07T22:46:58.605Z,47.43
2017-09-07T22:49:26.368Z,48.00
2017-09-07T22:51:53.991Z,48.04
2017-09-07T22:54:21.601Z,47.95
2017-09-07T22:56:49.679Z,47.88
2017-09-07T22:59:17.726Z,47.93
2017-09-07T23:01:45.366Z,48.46
2017-09-07T23:04:12.952Z,48.63
2017-09-07T23:06:40.591Z,49.05
2017-09-07T23:09:08.186Z,49.04
2017-09-07T23:11:35.980Z,49.23
2017-09-07T23:14:03.555Z,49.20
2017-09-07T23:16:31.150Z,49.55
2017-09-07T23:18:58.705Z,49.77
2017-09-07T23:21:26.243Z,49.61
2017-09-07T23:23:53.871Z,49.84
2017-09-07T23:26:21.422Z,49.60
2017-09-07T23:28:49.037Z,49.39
2017-09-07T23:31:16.618Z,49.62
2017-09-07T23:33:44.196Z,49.71
2017-09-07T23:36:11.959Z,49.45
2017-09-07T23:38:39.550Z,49.16
2017-09-07T23:41:07.106Z,49.10
2017-09-07T23:43:34.706Z,49.43
2017-09-07T23:46:02.315Z,50.05
2017-09-07T23:48:29.934Z,50.33
2017-09-07T23:50:59.962Z,50.38
2017-09-07T23:53:27.584Z,50.87
2017-09-07T23:55:55.324Z,51.19
2017-09-07T23:58:23.151Z,51.19
